Time;durP1;ratioP1;P1;durP2;ratioP2;P2;SDS_P1;SDS_P2;PMS_P1;PMS_P2;Temp;Humidity;BMP_temperature;BMP_pressure;BME280_temperature;BME280_humidity;BME280_pressure;Samples;Min_cycle;Max_cycle;Signal;HPM_P1;HPM_P2
2021/06/28 00:01:11;;;;;;;7.30;6.60;;;19.70;99.90;;;;;;5019135;28;20459;-84
2021/06/28 00:03:41;;;;;;;6.83;6.13;;;19.70;99.90;;;;;;5017115;28;20539;-84
2021/06/28 00:06:11;;;;;;;8.23;6.73;;;19.70;99.90;;;;;;5021169;28;20455;-84
2021/06/28 00:08:41;;;;;;;8.67;7.57;;;19.50;99.90;;;;;;5016202;28;20475;-85
2021/06/28 00:11:46;;;;;;;9.13;8.30;;;19.60;99.90;;;;;;5018352;28;20531;-84
2021/06/28 00:14:14;;;;;;;8.77;6.73;;;19.60;99.90;;;;;;5017009;28;20460;-84
2021/06/28 00:16:45;;;;;;;6.90;6.10;;;19.50;99.90;;;;;;5020477;28;21110;-84
2021/06/28 00:19:12;;;;;;;7.43;6.67;;;19.50;99.90;;;;;;5017927;28;20487;-84
2021/06/28 00:21:43;;;;;;;7.30;6.60;;;19.50;99.90;;;;;;5033515;28;20435;-83
2021/06/28 00:24:10;;;;;;;9.17;7.27;;;19.40;99.90;;;;;;5044637;28;20447;-84
2021/06/28 00:26:39;;;;;;;8.93;8.10;;;19.50;99.90;;;;;;5036109;28;20555;-83
2021/06/28 00:29:06;;;;;;;9.17;7.90;;;19.50;99.90;;;;;;5034205;28;20487;-83
2021/06/28 00:31:41;;;;;;;7.77;7.10;;;19.50;99.90;;;;;;5041453;28;20454;-83
2021/06/28 00:34:08;;;;;;;9.23;7.80;;;19.40;99.90;;;;;;5028812;28;20459;-83
2021/06/28 00:36:36;;;;;;;7.70;7.00;;;19.50;99.90;;;;;;5041876;28;20431;-84
2021/06/28 00:39:04;;;;;;;7.03;6.33;;;19.50;99.90;;;;;;5026779;28;20851;-85
2021/06/28 00:41:33;;;;;;;9.47;8.33;;;19.30;99.90;;;;;;5030292;28;20446;-84
2021/06/28 00:44:00;;;;;;;7.83;7.03;;;19.40;99.90;;;;;;5020827;28;20454;-84
2021/06/28 00:46:35;;;;;;;10.60;7.73;;;19.40;99.90;;;;;;5017588;28;20522;-85
2021/06/28 00:49:11;;;;;;;9.57;8.50;;;19.40;99.90;;;;;;5016594;28;20495;-84
2021/06/28 00:52:08;;;;;;;8.20;7.40;;;19.30;99.90;;;;;;5016352;28;20975;-84
2021/06/28 00:54:55;;;;;;;7.10;6.40;;;19.30;99.90;;;;;;5019623;28;20448;-84
2021/06/28 00:57:34;;;;;;;9.23;8.30;;;19.30;99.90;;;;;;5018433;28;20497;-84
2021/06/28 01:00:07;;;;;;;9.67;7.73;;;19.30;99.90;;;;;;5016085;28;20929;-84
2021/06/28 01:02:34;;;;;;;15.37;10.20;;;19.20;99.90;;;;;;5022592;28;20442;-85
2021/06/28 01:05:12;;;;;;;9.77;8.37;;;19.20;99.90;;;;;;5015047;28;20827;-84
2021/06/28 01:07:44;;;;;;;9.00;8.10;;;19.20;99.90;;;;;;5019106;28;20483;-84
2021/06/28 01:10:14;;;;;;;8.40;7.60;;;19.00;99.90;;;;;;5009414;28;20521;-84
2021/06/28 01:12:44;;;;;;;9.40;8.50;;;19.10;99.90;;;;;;5027277;28;20440;-83
2021/06/28 01:15:18;;;;;;;9.20;8.30;;;19.10;99.90;;;;;;5027772;28;20447;-84
2021/06/28 01:17:47;;;;;;;9.83;8.83;;;19.10;99.90;;;;;;5018762;28;20471;-84
2021/06/28 01:20:25;;;;;;;9.00;7.80;;;19.00;99.90;;;;;;5021303;28;20462;-84
2021/06/28 01:23:07;;;;;;;9.83;8.83;;;18.90;99.90;;;;;;5011074;28;20432;-84
2021/06/28 01:25:37;;;;;;;9.73;8.13;;;19.00;99.90;;;;;;5021207;28;20455;-84
2021/06/28 01:28:07;;;;;;;8.90;8.10;;;19.00;99.90;;;;;;5014653;28;20513;-85
2021/06/28 01:30:38;;;;;;;8.40;7.50;;;19.10;99.90;;;;;;5015395;28;20439;-85
2021/06/28 01:33:10;;;;;;;9.23;8.37;;;18.90;99.90;;;;;;5023646;28;20443;-84
2021/06/28 01:35:39;;;;;;;10.37;9.37;;;18.90;99.90;;;;;;5020255;28;20526;-84
2021/06/28 01:38:09;;;;;;;9.83;8.67;;;18.90;99.90;;;;;;5022772;28;20451;-84
2021/06/28 01:40:40;;;;;;;7.77;6.97;;;18.80;99.90;;;;;;5021057;28;20655;-84
2021/06/28 01:43:08;;;;;;;8.63;7.83;;;18.80;99.90;;;;;;5018388;28;20455;-84
2021/06/28 01:45:39;;;;;;;8.53;7.27;;;18.80;99.90;;;;;;5018209;28;20432;-84
2021/06/28 01:48:08;;;;;;;10.40;9.03;;;18.70;99.90;;;;;;5028887;28;20761;-84
2021/06/28 01:50:38;;;;;;;10.67;7.67;;;18.70;99.90;;;;;;5030863;28;20458;-84
2021/06/28 01:53:26;;;;;;;9.90;8.90;;;18.70;99.90;;;;;;5020874;28;20862;-85
2021/06/28 01:55:55;;;;;;;11.37;10.20;;;18.70;99.90;;;;;;5024376;28;20459;-84
2021/06/28 01:58:22;;;;;;;9.63;8.73;;;18.70;99.90;;;;;;5072331;22;20492;-83
2021/06/28 02:00:53;;;;;;;9.70;8.23;;;18.70;99.90;;;;;;5076463;28;20453;-85
2021/06/28 02:03:22;;;;;;;10.17;9.17;;;18.70;99.90;;;;;;5065242;28;20483;-84
2021/06/28 02:05:51;;;;;;;8.23;7.47;;;18.70;99.90;;;;;;5074168;28;20950;-82
2021/06/28 02:08:20;;;;;;;9.93;8.80;;;18.80;99.90;;;;;;5066449;28;20514;-84
2021/06/28 02:11:28;;;;;;;9.90;8.90;;;18.80;99.90;;;;;;5059317;28;20769;-84
2021/06/28 02:13:55;;;;;;;8.60;7.70;;;18.80;99.90;;;;;;5048945;28;20561;-83
2021/06/28 02:16:22;;;;;;;10.00;8.60;;;18.70;99.90;;;;;;5061920;28;20457;-84
2021/06/28 02:18:49;;;;;;;8.77;7.83;;;18.80;99.90;;;;;;5065636;28;20457;-83
2021/06/28 02:21:16;;;;;;;8.30;7.50;;;18.80;99.90;;;;;;5067552;28;20458;-84
2021/06/28 02:23:43;;;;;;;8.87;8.07;;;18.80;99.90;;;;;;5059186;28;20445;-83
2021/06/28 02:26:12;;;;;;;8.70;7.77;;;18.70;99.90;;;;;;5066450;28;20439;-83
2021/06/28 02:28:44;;;;;;;8.97;8.07;;;18.70;99.90;;;;;;5055735;28;20478;-85
2021/06/28 02:31:13;;;;;;;9.50;7.97;;;18.70;99.90;;;;;;5059799;28;20443;-84
2021/06/28 02:33:42;;;;;;;7.63;6.93;;;18.70;99.90;;;;;;5061883;28;20461;-84
2021/06/28 02:36:10;;;;;;;9.80;8.60;;;18.70;99.90;;;;;;5055611;28;20431;-84
2021/06/28 02:38:38;;;;;;;10.40;8.40;;;18.70;99.90;;;;;;5064581;28;20481;-83
2021/06/28 02:41:06;;;;;;;11.00;8.13;;;18.60;99.90;;;;;;5063957;28;20446;-82
2021/06/28 02:43:34;;;;;;;10.20;8.07;;;18.70;99.90;;;;;;5069424;28;20435;-81
2021/06/28 02:46:02;;;;;;;9.60;8.20;;;18.70;99.90;;;;;;5057007;28;20463;-83
2021/06/28 02:48:29;;;;;;;8.53;7.73;;;18.70;99.90;;;;;;5067557;28;20486;-83
2021/06/28 02:50:57;;;;;;;13.20;8.30;;;18.70;99.90;;;;;;5065867;28;20427;-82
2021/06/28 02:53:24;;;;;;;9.83;8.90;;;18.70;99.90;;;;;;5059282;28;20439;-82
2021/06/28 02:55:52;;;;;;;9.80;8.77;;;18.60;99.90;;;;;;5056851;28;20477;-83
2021/06/28 02:58:20;;;;;;;9.30;8.40;;;18.60;99.90;;;;;;5042846;28;20467;-84
2021/06/28 03:00:47;;;;;;;8.90;8.00;;;18.60;99.90;;;;;;5058418;28;20429;-83
2021/06/28 03:03:16;;;;;;;10.67;9.73;;;18.60;99.90;;;;;;5054608;28;20458;-82
2021/06/28 03:05:43;;;;;;;9.13;8.13;;;18.60;99.90;;;;;;5055389;28;20435;-85
2021/06/28 03:08:10;;;;;;;10.97;8.70;;;18.60;99.90;;;;;;5062027;28;20518;-82
2021/06/28 03:10:38;;;;;;;9.73;8.57;;;18.70;99.90;;;;;;5055254;28;20525;-85
2021/06/28 03:13:07;;;;;;;9.90;8.87;;;18.60;99.90;;;;;;5056597;28;20950;-84
2021/06/28 03:15:34;;;;;;;9.43;8.53;;;18.60;99.90;;;;;;5062941;28;20445;-85
2021/06/28 03:18:02;;;;;;;9.03;8.13;;;18.60;99.90;;;;;;5049938;28;20521;-85
2021/06/28 03:20:30;;;;;;;9.60;7.50;;;18.70;99.90;;;;;;5059040;28;20442;-83
2021/06/28 03:22:57;;;;;;;10.90;9.63;;;18.60;99.90;;;;;;5060356;28;20451;-82
2021/06/28 03:25:24;;;;;;;9.90;8.63;;;18.70;99.90;;;;;;5060339;28;20427;-82
2021/06/28 03:27:52;;;;;;;9.33;8.37;;;18.60;99.90;;;;;;5051812;28;20874;-84
2021/06/28 03:30:19;;;;;;;9.20;7.83;;;18.70;99.90;;;;;;5053148;28;20974;-83
2021/06/28 03:32:46;;;;;;;10.97;9.87;;;18.70;99.90;;;;;;5055855;28;20524;-84
2021/06/28 03:35:14;;;;;;;15.00;10.47;;;18.80;99.90;;;;;;5057363;28;20450;-83
2021/06/28 03:37:42;;;;;;;13.77;9.93;;;18.80;99.90;;;;;;5045098;28;20462;-83
2021/06/28 03:40:12;;;;;;;8.90;7.93;;;18.80;99.90;;;;;;5055878;28;20913;-84
2021/06/28 03:42:40;;;;;;;9.70;8.47;;;18.90;99.90;;;;;;5048031;28;20431;-83
2021/06/28 03:45:10;;;;;;;8.97;8.17;;;19.00;99.90;;;;;;5053373;28;20450;-84
2021/06/28 03:47:37;;;;;;;8.37;7.57;;;19.00;99.90;;;;;;5060842;28;20496;-82
2021/06/28 03:50:06;;;;;;;11.13;9.87;;;19.00;99.90;;;;;;5057509;28;20457;-82
2021/06/28 03:52:33;;;;;;;9.30;7.97;;;19.00;99.90;;;;;;5055438;28;20457;-84
2021/06/28 03:55:02;;;;;;;9.50;8.20;;;19.00;99.90;;;;;;5055854;28;20451;-84
2021/06/28 03:57:29;;;;;;;8.60;7.23;;;19.10;99.90;;;;;;5062129;28;20466;-82
2021/06/28 03:59:56;;;;;;;11.57;8.30;;;19.10;99.90;;;;;;5047652;28;20446;-85
2021/06/28 04:02:24;;;;;;;9.40;7.70;;;19.20;99.90;;;;;;5056623;28;20459;-85
2021/06/28 04:04:51;;;;;;;8.80;7.90;;;19.20;99.90;;;;;;5056374;28;20455;-85
2021/06/28 04:07:18;;;;;;;9.10;8.20;;;19.30;99.90;;;;;;5057638;28;20464;-84
2021/06/28 04:09:46;;;;;;;9.80;8.80;;;19.30;99.90;;;;;;5059485;28;20450;-84
2021/06/28 04:12:14;;;;;;;8.87;7.97;;;19.30;99.90;;;;;;5058452;28;20483;-85
2021/06/28 04:14:42;;;;;;;11.43;8.40;;;19.40;99.90;;;;;;5056598;28;20465;-83
2021/06/28 04:17:09;;;;;;;9.80;8.60;;;19.50;99.90;;;;;;5058613;28;20463;-83
2021/06/28 04:19:37;;;;;;;9.97;9.07;;;19.50;99.90;;;;;;5061464;28;20475;-84
2021/06/28 04:22:05;;;;;;;9.40;8.40;;;19.50;99.90;;;;;;5062703;28;20470;-83
2021/06/28 04:24:32;;;;;;;11.77;9.73;;;19.50;99.90;;;;;;5058486;28;20446;-85
2021/06/28 04:26:59;;;;;;;10.30;9.30;;;19.50;99.90;;;;;;5055192;28;20793;-84
2021/06/28 04:29:27;;;;;;;10.43;8.90;;;19.60;99.90;;;;;;5058637;28;20560;-84
2021/06/28 04:31:54;;;;;;;9.20;8.30;;;19.50;99.90;;;;;;5054994;28;20446;-83
2021/06/28 04:34:21;;;;;;;11.47;9.23;;;19.50;99.90;;;;;;5049411;28;20438;-84
2021/06/28 04:36:48;;;;;;;10.70;9.60;;;19.60;99.90;;;;;;5052979;28;20446;-85
2021/06/28 04:39:15;;;;;;;9.43;8.33;;;19.60;99.90;;;;;;5062288;28;20455;-84
2021/06/28 04:41:42;;;;;;;10.57;9.50;;;19.60;99.90;;;;;;5064162;28;20445;-84
2021/06/28 04:44:10;;;;;;;9.60;8.70;;;19.70;99.90;;;;;;5061743;28;20444;-84
2021/06/28 04:46:38;;;;;;;10.57;9.43;;;19.80;99.90;;;;;;5058053;28;20484;-85
2021/06/28 04:49:06;;;;;;;9.03;8.13;;;19.90;99.90;;;;;;5052661;28;20478;-86
2021/06/28 04:51:33;;;;;;;14.13;9.50;;;20.00;99.90;;;;;;5053687;28;20445;-85
2021/06/28 04:54:00;;;;;;;12.60;8.50;;;20.10;99.90;;;;;;5064411;28;20442;-85
2021/06/28 04:56:27;;;;;;;13.40;10.23;;;20.20;99.90;;;;;;5047945;28;20453;-86
2021/06/28 04:58:54;;;;;;;10.67;9.67;;;20.40;99.90;;;;;;5050990;28;20466;-82
2021/06/28 05:01:21;;;;;;;10.93;9.73;;;20.60;99.90;;;;;;5052857;28;20446;-85
2021/06/28 05:03:50;;;;;;;9.63;8.70;;;20.60;99.90;;;;;;5061541;28;20442;-84
2021/06/28 05:06:17;;;;;;;10.47;9.57;;;20.60;99.90;;;;;;5050520;28;20439;-83
2021/06/28 05:08:44;;;;;;;11.53;7.80;;;20.70;99.90;;;;;;5045980;28;20491;-84
2021/06/28 05:11:11;;;;;;;11.60;10.40;;;20.80;99.90;;;;;;5056738;28;20443;-82
2021/06/28 05:13:38;;;;;;;11.20;10.10;;;20.80;99.90;;;;;;5060482;28;20439;-82
2021/06/28 05:16:05;;;;;;;9.87;8.97;;;20.80;99.90;;;;;;5051246;28;20428;-83
2021/06/28 05:18:32;;;;;;;9.50;8.23;;;20.80;99.90;;;;;;5046935;28;20467;-87
2021/06/28 05:21:01;;;;;;;9.90;9.00;;;20.80;99.90;;;;;;5044361;28;20444;-85
2021/06/28 05:23:28;;;;;;;10.30;9.30;;;20.80;99.90;;;;;;5043307;28;20451;-85
2021/06/28 05:25:56;;;;;;;11.50;10.30;;;20.80;99.90;;;;;;5053454;28;20438;-85
2021/06/28 05:28:23;;;;;;;14.77;10.10;;;20.80;99.90;;;;;;5055256;28;20462;-83
2021/06/28 05:30:50;;;;;;;12.10;10.80;;;20.80;99.90;;;;;;5056560;28;20496;-83
2021/06/28 05:33:17;;;;;;;11.03;9.67;;;20.80;99.90;;;;;;5057216;28;21026;-84
2021/06/28 05:35:45;;;;;;;10.67;9.43;;;20.70;99.90;;;;;;5047511;28;20451;-85
2021/06/28 05:38:13;;;;;;;12.53;10.30;;;20.70;99.90;;;;;;5055578;28;20478;-84
2021/06/28 05:40:41;;;;;;;12.67;10.30;;;20.70;99.90;;;;;;5058486;28;20499;-85
2021/06/28 05:43:08;;;;;;;10.63;8.67;;;20.60;99.90;;;;;;5064308;28;20453;-85
2021/06/28 05:45:35;;;;;;;10.80;9.57;;;20.70;99.90;;;;;;5051579;28;20930;-84
2021/06/28 05:48:03;;;;;;;10.20;8.70;;;20.70;99.90;;;;;;5059978;28;20489;-84
2021/06/28 05:50:31;;;;;;;11.00;10.00;;;20.70;99.90;;;;;;5058624;28;20523;-84
2021/06/28 05:52:59;;;;;;;14.33;10.60;;;20.70;99.90;;;;;;5054011;28;20451;-84
2021/06/28 05:55:27;;;;;;;10.20;9.17;;;20.70;99.90;;;;;;5060886;28;20443;-83
2021/06/28 05:57:55;;;;;;;9.80;8.53;;;20.70;99.90;;;;;;5053660;28;20474;-86
2021/06/28 06:00:22;;;;;;;12.00;10.70;;;20.80;99.90;;;;;;5053749;28;20470;-85
2021/06/28 06:02:50;;;;;;;10.63;9.63;;;20.90;99.90;;;;;;5047166;28;20452;-86
2021/06/28 06:05:17;;;;;;;17.97;11.30;;;20.90;99.90;;;;;;5054399;28;20445;-86
2021/06/28 06:07:44;;;;;;;10.33;9.37;;;20.90;99.90;;;;;;5056205;28;20475;-85
2021/06/28 06:10:13;;;;;;;10.00;8.97;;;21.00;99.90;;;;;;5056701;28;20452;-84
2021/06/28 06:12:42;;;;;;;12.13;10.93;;;21.10;99.90;;;;;;5050059;28;20445;-84
2021/06/28 06:15:12;;;;;;;12.83;10.53;;;21.10;99.90;;;;;;5055958;28;20435;-85
2021/06/28 06:17:39;;;;;;;11.60;10.50;;;21.20;99.90;;;;;;5047546;28;20466;-84
2021/06/28 06:20:08;;;;;;;12.70;9.73;;;21.20;99.90;;;;;;5053514;28;20524;-84
2021/06/28 06:22:35;;;;;;;10.30;9.40;;;21.30;99.90;;;;;;5054654;28;20508;-85
2021/06/28 06:25:04;;;;;;;16.13;10.53;;;21.30;99.90;;;;;;5049545;28;20468;-85
2021/06/28 06:27:31;;;;;;;11.10;10.00;;;21.30;99.90;;;;;;5047244;28;20484;-85
2021/06/28 06:30:00;;;;;;;11.20;10.10;;;21.40;99.90;;;;;;5046941;28;21012;-85
2021/06/28 06:32:27;;;;;;;11.27;9.80;;;21.40;99.90;;;;;;5056934;28;20465;-85
2021/06/28 06:34:54;;;;;;;12.47;11.37;;;21.60;99.90;;;;;;5051911;28;20444;-85
2021/06/28 06:37:21;;;;;;;11.37;10.37;;;21.60;99.90;;;;;;5052940;28;20463;-86
2021/06/28 06:39:48;;;;;;;10.50;9.60;;;21.70;99.90;;;;;;5057341;28;20441;-85
2021/06/28 06:42:17;;;;;;;20.93;11.43;;;21.70;99.90;;;;;;5059614;28;20446;-83
2021/06/28 08:05:42;;;;;;;8.70;7.90;;;33.50;79.30;;;;;;5020286;22;20926;-72
2021/06/28 08:08:10;;;;;;;9.93;8.73;;;33.30;79.10;;;;;;5051258;28;20461;-78
2021/06/28 08:10:37;;;;;;;9.07;8.27;;;33.40;77.50;;;;;;5050046;28;20441;-74
2021/06/28 08:13:04;;;;;;;10.57;9.63;;;33.10;77.50;;;;;;5045615;28;21174;-75
2021/06/28 08:15:32;;;;;;;8.97;8.17;;;34.20;74.90;;;;;;5045160;28;20449;-72
2021/06/28 08:17:59;;;;;;;12.47;9.00;;;34.90;73.30;;;;;;5047917;28;20519;-74
2021/06/28 08:20:27;;;;;;;11.07;9.27;;;35.00;72.30;;;;;;5051902;28;20560;-78
2021/06/28 08:22:55;;;;;;;11.37;10.07;;;36.00;70.60;;;;;;5040137;28;20455;-72
2021/06/28 08:25:25;;;;;;;9.87;8.90;;;36.40;69.10;;;;;;5041694;28;20470;-74
2021/06/28 08:27:55;;;;;;;9.43;8.70;;;36.60;67.40;;;;;;5049101;28;20442;-73
2021/06/28 08:30:23;;;;;;;9.20;8.40;;;37.10;66.00;;;;;;5045631;28;20477;-73
2021/06/28 08:32:50;;;;;;;9.97;9.07;;;37.20;65.00;;;;;;5047038;28;20515;-76
2021/06/28 08:35:18;;;;;;;8.97;8.07;;;37.10;64.50;;;;;;5040077;28;20820;-74
2021/06/28 08:37:45;;;;;;;9.20;8.30;;;37.60;63.80;;;;;;5052507;28;20450;-78
2021/06/28 08:40:14;;;;;;;9.67;8.77;;;38.10;63.30;;;;;;5051595;28;20508;-74
2021/06/28 08:42:41;;;;;;;9.10;8.30;;;38.30;59.70;;;;;;5051892;28;20816;-75
2021/06/28 08:45:10;;;;;;;9.40;8.50;;;38.30;58.60;;;;;;5046231;28;20470;-77
2021/06/28 08:47:38;;;;;;;8.73;7.97;;;38.70;57.10;;;;;;5054331;28;20446;-75
2021/06/28 08:50:07;;;;;;;7.30;6.60;;;38.90;57.20;;;;;;5047710;28;20442;-73
2021/06/28 08:52:37;;;;;;;6.20;5.70;;;39.40;55.10;;;;;;5054121;28;20919;-72
2021/06/28 08:55:05;;;;;;;8.20;7.40;;;39.20;53.30;;;;;;5054851;28;20466;-75
2021/06/28 08:57:35;;;;;;;7.23;6.57;;;38.80;54.10;;;;;;5043248;28;20824;-73
2021/06/28 09:00:02;;;;;;;8.47;7.70;;;38.80;54.10;;;;;;5049610;28;20513;-70
2021/06/28 09:02:29;;;;;;;8.17;6.43;;;38.20;54.40;;;;;;5056572;28;20939;-77
2021/06/28 09:04:58;;;;;;;8.30;7.60;;;38.50;55.10;;;;;;5055610;28;20462;-75
2021/06/28 09:07:25;;;;;;;7.83;7.00;;;39.00;55.10;;;;;;5049638;28;20449;-78
2021/06/28 09:09:52;;;;;;;8.27;7.00;;;39.00;54.40;;;;;;5047630;28;20484;-75
2021/06/28 09:12:20;;;;;;;7.43;6.90;;;39.20;53.00;;;;;;5047499;28;20457;-78
2021/06/28 09:14:53;;;;;;;7.20;6.40;;;38.20;53.20;;;;;;5055540;28;20466;-76
2021/06/28 09:17:32;;;;;;;8.93;6.97;;;38.40;53.70;;;;;;5043542;28;20449;-72
2021/06/28 09:20:19;;;;;;;7.50;6.90;;;37.70;54.70;;;;;;5054910;28;20894;-74
2021/06/28 09:22:49;;;;;;;7.17;6.37;;;37.70;55.20;;;;;;5055230;28;20454;-76
2021/06/28 09:25:31;;;;;;;6.87;6.27;;;37.40;55.40;;;;;;5049384;28;20492;-73
2021/06/28 09:27:59;;;;;;;7.30;6.60;;;37.30;54.50;;;;;;5047038;28;20447;-75
2021/06/28 09:30:28;;;;;;;7.40;6.80;;;37.40;53.50;;;;;;5045693;28;20446;-74
2021/06/28 09:32:57;;;;;;;8.00;7.33;;;36.80;55.00;;;;;;5050923;28;20442;-76
2021/06/28 09:35:36;;;;;;;8.13;6.87;;;36.20;55.50;;;;;;5052928;28;20828;-77
2021/06/28 09:38:06;;;;;;;6.27;5.77;;;35.40;56.80;;;;;;5050668;28;20438;-74
2021/06/28 09:40:35;;;;;;;11.23;5.80;;;35.80;57.00;;;;;;5054148;28;20519;-73
2021/06/28 09:43:21;;;;;;;7.53;6.80;;;36.40;55.90;;;;;;5052015;28;20505;-76
2021/06/28 09:45:55;;;;;;;6.70;6.20;;;36.70;55.60;;;;;;5048936;28;20474;-75
2021/06/28 09:48:23;;;;;;;8.40;6.23;;;36.20;57.40;;;;;;5045483;28;20941;-73
2021/06/28 09:50:50;;;;;;;6.90;6.30;;;36.50;55.90;;;;;;5053350;28;20484;-75
2021/06/28 09:53:27;;;;;;;6.00;5.40;;;35.50;56.00;;;;;;5049683;28;20442;-75
2021/06/28 09:55:54;;;;;;;6.13;5.53;;;34.70;56.10;;;;;;5052870;28;20504;-72
2021/06/28 09:58:25;;;;;;;6.27;5.77;;;35.00;55.90;;;;;;5046195;28;20833;-75
2021/06/28 10:00:56;;;;;;;6.50;5.83;;;35.10;55.10;;;;;;5046971;28;20490;-77
2021/06/28 10:03:31;;;;;;;5.67;5.27;;;35.60;54.50;;;;;;5051776;28;20802;-74
2021/06/28 10:06:08;;;;;;;5.53;5.13;;;35.90;54.40;;;;;;5054143;28;20468;-74
2021/06/28 10:08:36;;;;;;;6.57;5.97;;;36.10;53.60;;;;;;5048539;28;20450;-75
2021/06/28 10:11:17;;;;;;;5.50;5.10;;;35.50;54.70;;;;;;5044147;28;20438;-74
2021/06/28 10:13:48;;;;;;;8.70;5.77;;;35.50;55.10;;;;;;5050441;28;20540;-75
2021/06/28 10:16:19;;;;;;;7.50;5.63;;;35.50;55.20;;;;;;5039429;28;21660;-76
2021/06/28 10:18:46;;;;;;;5.80;5.40;;;35.40;54.30;;;;;;5053542;28;20458;-74
2021/06/28 10:21:14;;;;;;;7.00;5.50;;;35.40;55.20;;;;;;5051950;28;20759;-75
2021/06/28 10:23:41;;;;;;;6.50;5.90;;;35.70;55.60;;;;;;5048447;28;20462;-74
2021/06/28 10:26:08;;;;;;;6.57;6.07;;;35.40;56.30;;;;;;5046304;28;20446;-74
2021/06/28 10:28:38;;;;;;;8.00;6.13;;;35.00;56.10;;;;;;5051608;28;20454;-75
2021/06/28 10:31:07;;;;;;;8.43;7.67;;;35.20;56.80;;;;;;5047359;28;20433;-76
2021/06/28 10:33:38;;;;;;;6.33;5.87;;;35.00;57.50;;;;;;5052194;28;20461;-78
2021/06/28 10:36:08;;;;;;;7.50;6.80;;;35.30;57.60;;;;;;5054239;28;20442;-77
2021/06/28 10:38:47;;;;;;;7.63;7.03;;;34.80;58.70;;;;;;5041782;28;20458;-75
2021/06/28 10:41:15;;;;;;;7.43;6.83;;;34.50;58.70;;;;;;5051906;28;20454;-77
2021/06/28 10:43:42;;;;;;;7.10;6.50;;;34.20;59.20;;;;;;5048700;28;20494;-76
2021/06/28 10:46:31;;;;;;;8.33;7.50;;;33.80;60.50;;;;;;5049759;28;20892;-75
2021/06/28 10:49:00;;;;;;;7.37;6.77;;;33.30;62.40;;;;;;5048693;28;20457;-75
2021/06/28 10:51:39;;;;;;;7.40;6.70;;;32.70;63.00;;;;;;5049977;28;20546;-77
2021/06/28 10:54:07;;;;;;;7.53;6.83;;;32.20;64.00;;;;;;5050057;28;20461;-78
2021/06/28 10:56:45;;;;;;;8.00;7.20;;;31.90;65.30;;;;;;5047009;28;20453;-76
2021/06/28 10:59:21;;;;;;;7.07;6.37;;;31.80;66.60;;;;;;5047444;28;20533;-74
2021/06/28 11:02:12;;;;;;;11.03;7.53;;;31.70;66.70;;;;;;5044860;28;20934;-74
2021/06/28 11:04:54;;;;;;;6.37;5.80;;;31.70;66.40;;;;;;5040408;28;20559;-74
2021/06/28 11:07:22;;;;;;;7.27;6.67;;;31.40;66.90;;;;;;5036746;28;20453;-77
2021/06/28 11:09:53;;;;;;;5.30;4.90;;;31.30;66.70;;;;;;5046974;28;20450;-77
2021/06/28 11:12:35;;;;;;;6.53;6.00;;;31.30;63.30;;;;;;5041831;28;20447;-76
2021/06/28 11:15:07;;;;;;;5.27;4.83;;;31.30;63.70;;;;;;5047207;28;20549;-74
2021/06/28 11:17:56;;;;;;;5.23;4.83;;;31.20;63.80;;;;;;5053274;28;20797;-74
2021/06/28 11:20:31;;;;;;;8.20;5.83;;;31.10;63.50;;;;;;5049489;28;20536;-76
2021/06/28 11:23:05;;;;;;;5.77;5.37;;;30.90;63.50;;;;;;5045016;28;20468;-75
2021/06/28 11:25:42;;;;;;;7.50;5.67;;;30.50;64.60;;;;;;5046465;28;20889;-76
2021/06/28 11:28:27;;;;;;;6.13;5.63;;;30.80;65.40;;;;;;5044131;28;20447;-75
2021/06/28 11:31:02;;;;;;;6.17;5.60;;;31.00;65.00;;;;;;5047192;28;20437;-75
2021/06/28 11:33:44;;;;;;;12.17;7.30;;;30.80;64.30;;;;;;5051998;28;20472;-74
2021/06/28 11:37:00;;;;;;;6.23;5.63;;;30.80;65.00;;;;;;5052791;28;20442;-77
2021/06/28 11:39:32;;;;;;;6.30;5.80;;;30.80;64.30;;;;;;4955260;28;20490;-75
2021/06/28 11:42:20;;;;;;;11.30;6.97;;;30.80;65.20;;;;;;4958837;28;20466;-74
2021/06/28 11:44:52;;;;;;;6.23;5.73;;;30.90;65.30;;;;;;5013239;28;20517;-74
2021/06/28 11:47:48;;;;;;;7.00;5.73;;;31.10;65.00;;;;;;5051552;28;20454;-76
2021/06/28 11:50:35;;;;;;;8.57;6.17;;;31.20;64.40;;;;;;5048118;28;20532;-75
2021/06/28 11:53:06;;;;;;;5.80;5.23;;;31.50;64.80;;;;;;5050004;28;20450;-77
2021/06/28 11:55:39;;;;;;;9.10;6.87;;;31.40;65.10;;;;;;5049990;28;20473;-77
2021/06/28 11:58:06;;;;;;;6.37;5.77;;;31.20;65.00;;;;;;5039644;28;20464;-75
2021/06/28 12:00:33;;;;;;;6.27;5.77;;;31.20;65.10;;;;;;5039399;28;20486;-75
2021/06/28 12:03:15;;;;;;;6.47;5.87;;;31.00;66.10;;;;;;5048923;28;20446;-75
2021/06/28 12:05:44;;;;;;;7.10;6.50;;;31.20;66.20;;;;;;5037943;28;20952;-75
2021/06/28 12:08:22;;;;;;;5.70;5.20;;;31.20;66.60;;;;;;5047781;28;20928;-78
2021/06/28 12:10:56;;;;;;;5.53;5.13;;;31.30;66.40;;;;;;5052158;28;20456;-77
2021/06/28 12:13:32;;;;;;;6.70;6.03;;;31.20;66.80;;;;;;5049286;28;20820;-75
2021/06/28 12:16:14;;;;;;;6.37;5.73;;;31.10;67.00;;;;;;5041870;28;20450;-76
2021/06/28 12:18:41;;;;;;;6.70;5.97;;;31.10;66.60;;;;;;5045976;28;20453;-76
2021/06/28 12:21:10;;;;;;;7.93;5.47;;;31.00;67.20;;;;;;5048593;28;20859;-76
2021/06/28 12:23:39;;;;;;;7.20;6.60;;;31.20;66.50;;;;;;5051518;28;20466;-75
2021/06/28 12:26:24;;;;;;;8.67;6.53;;;31.30;66.30;;;;;;5044885;28;20453;-74
2021/06/28 12:28:51;;;;;;;6.70;6.17;;;31.20;66.80;;;;;;5042587;28;20439;-73
2021/06/28 12:31:18;;;;;;;6.37;5.70;;;31.20;67.40;;;;;;5049717;28;20798;-78
2021/06/28 12:33:48;;;;;;;6.73;6.13;;;31.30;66.50;;;;;;5052727;28;20470;-75
2021/06/28 12:36:19;;;;;;;6.50;5.97;;;31.20;66.60;;;;;;5045310;28;20806;-76
2021/06/28 12:38:58;;;;;;;7.00;6.40;;;31.40;66.00;;;;;;5049567;28;20447;-74
2021/06/28 12:41:26;;;;;;;5.40;5.00;;;31.30;65.80;;;;;;5052248;28;20998;-72
2021/06/28 12:43:54;;;;;;;7.57;6.77;;;31.20;66.70;;;;;;5046276;28;20466;-77
2021/06/28 12:46:21;;;;;;;6.20;5.70;;;31.00;66.80;;;;;;5048723;28;20448;-75
2021/06/28 12:48:50;;;;;;;7.97;7.17;;;31.00;67.50;;;;;;5045794;28;20443;-77
2021/06/28 12:51:21;;;;;;;7.00;6.40;;;31.00;67.20;;;;;;5044291;28;20449;-77
2021/06/28 12:53:50;;;;;;;10.20;6.67;;;31.00;67.40;;;;;;5050268;28;21020;-77
2021/06/28 12:56:19;;;;;;;6.77;6.13;;;30.80;68.30;;;;;;5042358;28;20533;-74
2021/06/28 12:58:51;;;;;;;7.00;6.30;;;30.80;68.20;;;;;;5039656;28;20896;-74
2021/06/28 13:01:31;;;;;;;7.07;6.47;;;31.00;67.90;;;;;;5039892;28;20478;-75
2021/06/28 13:04:17;;;;;;;8.50;6.30;;;31.30;67.80;;;;;;5045044;28;20531;-78
2021/06/28 13:06:44;;;;;;;6.33;5.83;;;31.40;67.80;;;;;;5032307;28;20534;-74
2021/06/28 13:09:18;;;;;;;6.20;5.70;;;31.20;66.10;;;;;;5039443;28;20772;-73
2021/06/28 13:11:47;;;;;;;5.70;5.20;;;31.20;66.60;;;;;;5043309;28;20926;-74
2021/06/28 13:14:25;;;;;;;6.23;5.80;;;31.30;67.10;;;;;;5051412;28;20466;-73
2021/06/28 13:17:03;;;;;;;8.20;7.50;;;31.30;67.80;;;;;;5043052;28;20446;-74
2021/06/28 13:19:31;;;;;;;5.40;5.00;;;31.20;68.30;;;;;;5040644;28;20863;-75
2021/06/28 13:22:04;;;;;;;6.97;6.27;;;31.30;67.70;;;;;;5041006;28;20470;-75
2021/06/28 13:24:34;;;;;;;7.67;6.77;;;31.40;67.60;;;;;;5042850;28;20470;-75
2021/06/28 13:27:04;;;;;;;6.93;6.07;;;31.20;68.00;;;;;;5050795;28;20528;-74
2021/06/28 13:29:33;;;;;;;8.03;7.33;;;30.90;67.50;;;;;;5046812;28;20438;-75
2021/06/28 13:32:04;;;;;;;7.07;6.47;;;30.90;68.60;;;;;;5052883;28;20457;-74
2021/06/28 13:34:43;;;;;;;7.70;6.77;;;30.90;69.30;;;;;;5052996;28;21097;-74
2021/06/28 13:37:14;;;;;;;7.43;6.80;;;30.80;70.00;;;;;;5053814;28;20429;-74
2021/06/28 13:39:48;;;;;;;6.60;6.00;;;31.00;69.50;;;;;;5045298;28;20442;-75
2021/06/28 13:42:36;;;;;;;6.90;6.30;;;31.10;68.80;;;;;;5053802;28;20442;-75
2021/06/28 13:45:09;;;;;;;7.10;5.93;;;31.10;69.70;;;;;;5046269;28;20466;-75
2021/06/28 13:47:49;;;;;;;6.07;5.57;;;31.30;68.60;;;;;;5046490;28;20460;-74
2021/06/28 13:50:18;;;;;;;4.77;4.37;;;31.40;68.50;;;;;;5052214;28;20916;-74
2021/06/28 13:52:46;;;;;;;5.07;4.67;;;31.70;68.40;;;;;;5046225;28;20485;-77
2021/06/28 13:55:15;;;;;;;3.57;3.27;;;31.80;68.30;;;;;;5054456;28;20469;-75
2021/06/28 13:57:48;;;;;;;7.03;6.43;;;32.00;65.50;;;;;;5052957;28;20450;-74
2021/06/28 14:00:16;;;;;;;4.30;3.97;;;32.00;65.90;;;;;;5051837;28;21036;-75
2021/06/28 14:02:43;;;;;;;5.20;4.00;;;32.20;64.10;;;;;;5049524;28;20443;-75
2021/06/28 14:05:12;;;;;;;3.03;2.73;;;32.50;63.60;;;;;;5049318;28;20906;-75
2021/06/28 14:07:39;;;;;;;3.93;3.33;;;32.60;62.40;;;;;;5044956;28;20438;-75
2021/06/28 14:10:09;;;;;;;3.90;3.53;;;32.60;62.90;;;;;;5049589;28;20445;-76
2021/06/28 14:12:38;;;;;;;4.80;4.40;;;32.50;63.90;;;;;;5049317;28;20789;-74
2021/06/28 14:15:06;;;;;;;4.33;3.53;;;32.50;63.90;;;;;;5045592;28;20463;-74
2021/06/28 14:17:33;;;;;;;5.63;4.03;;;32.30;65.50;;;;;;5043376;28;20452;-76
2021/06/28 14:20:01;;;;;;;4.57;4.27;;;32.30;66.50;;;;;;5052571;28;20454;-77
2021/06/28 14:22:31;;;;;;;5.87;5.07;;;32.00;67.10;;;;;;5049074;28;20545;-76